sensor_id;sensor_type;location;lat;lon;timestamp;pressure;altitude;pressure_sealevel;temperature;humidity
74895;BME280;63447;49.446;8.666;2023-05-07T00:02:06;100319.06;;;15.54;69.35
74895;BME280;63447;49.446;8.666;2023-05-07T00:04:32;100300.41;;;15.55;69.01
74895;BME280;63447;49.446;8.666;2023-05-07T00:07:02;100310.88;;;15.42;69.10
74895;BME280;63447;49.446;8.666;2023-05-07T00:09:27;100333.03;;;15.39;70.72
74895;BME280;63447;49.446;8.666;2023-05-07T00:11:52;100309.63;;;15.40;69.03
74895;BME280;63447;49.446;8.666;2023-05-07T00:14:18;100307.94;;;15.54;69.23
74895;BME280;63447;49.446;8.666;2023-05-07T00:16:46;100315.47;;;15.54;69.33
74895;BME280;63447;49.446;8.666;2023-05-07T00:19:12;100277.94;;;15.44;68.54
74895;BME280;63447;49.446;8.666;2023-05-07T00:21:40;100296.69;;;15.67;68.83
74895;BME280;63447;49.446;8.666;2023-05-07T00:24:07;100303.91;;;15.71;68.44
74895;BME280;63447;49.446;8.666;2023-05-07T00:26:32;100296.38;;;15.72;68.52
74895;BME280;63447;49.446;8.666;2023-05-07T00:28:58;100271.13;;;15.61;67.66
74895;BME280;63447;49.446;8.666;2023-05-07T00:31:23;100290.97;;;15.79;68.04
74895;BME280;63447;49.446;8.666;2023-05-07T00:33:48;100297.78;;;15.81;68.08
74895;BME280;63447;49.446;8.666;2023-05-07T00:36:14;100296.16;;;15.80;68.25
74895;BME280;63447;49.446;8.666;2023-05-07T00:38:39;100262.38;;;15.59;68.48
74895;BME280;63447;49.446;8.666;2023-05-07T00:41:04;100303.63;;;15.76;67.89
74895;BME280;63447;49.446;8.666;2023-05-07T00:43:35;100286.16;;;15.56;68.30
74895;BME280;63447;49.446;8.666;2023-05-07T00:46:00;100279.44;;;15.57;68.51
74895;BME280;63447;49.446;8.666;2023-05-07T00:48:26;100292.22;;;15.62;68.54
74895;BME280;63447;49.446;8.666;2023-05-07T00:50:52;100288.16;;;15.56;68.87
74895;BME280;63447;49.446;8.666;2023-05-07T00:53:17;100287.41;;;15.59;67.91
74895;BME280;63447;49.446;8.666;2023-05-07T00:55:42;100293.38;;;15.61;68.64
74895;BME280;63447;49.446;8.666;2023-05-07T00:58:10;100287.09;;;15.64;67.78
74895;BME280;63447;49.446;8.666;2023-05-07T01:00:38;100284.75;;;15.66;67.58
74895;BME280;63447;49.446;8.666;2023-05-07T01:03:04;100282.31;;;15.45;68.25
74895;BME280;63447;49.446;8.666;2023-05-07T01:05:30;100280.13;;;15.54;68.12
74895;BME280;63447;49.446;8.666;2023-05-07T01:07:56;100272.53;;;15.51;68.25
74895;BME280;63447;49.446;8.666;2023-05-07T01:10:25;100280.50;;;15.53;68.26
74895;BME280;63447;49.446;8.666;2023-05-07T01:12:51;100272.16;;;15.53;67.42
74895;BME280;63447;49.446;8.666;2023-05-07T01:15:17;100278.00;;;15.48;68.06
74895;BME280;63447;49.446;8.666;2023-05-07T01:17:43;100281.97;;;15.47;68.42
74895;BME280;63447;49.446;8.666;2023-05-07T01:20:13;100275.25;;;15.28;68.71
74895;BME280;63447;49.446;8.666;2023-05-07T01:22:39;100267.34;;;15.31;68.87
74895;BME280;63447;49.446;8.666;2023-05-07T01:25:06;100275.25;;;15.28;68.31
74895;BME280;63447;49.446;8.666;2023-05-07T01:27:35;100244.38;;;15.14;69.06
74895;BME280;63447;49.446;8.666;2023-05-07T01:30:03;100250.38;;;15.16;69.86
74895;BME280;63447;49.446;8.666;2023-05-07T01:32:36;100256.56;;;15.10;69.91
74895;BME280;63447;49.446;8.666;2023-05-07T01:35:05;100244.16;;;15.04;69.80
74895;BME280;63447;49.446;8.666;2023-05-07T01:37:32;100245.97;;;14.96;70.76
74895;BME280;63447;49.446;8.666;2023-05-07T01:40:02;100256.50;;;14.87;71.27
74895;BME280;63447;49.446;8.666;2023-05-07T01:42:29;100246.84;;;14.81;70.55
74895;BME280;63447;49.446;8.666;2023-05-07T01:44:55;100248.88;;;14.84;70.57
74895;BME280;63447;49.446;8.666;2023-05-07T01:47:21;100251.53;;;14.77;69.82
74895;BME280;63447;49.446;8.666;2023-05-07T01:49:46;100251.22;;;14.82;70.20
74895;BME280;63447;49.446;8.666;2023-05-07T01:52:14;100234.41;;;14.75;69.15
74895;BME280;63447;49.446;8.666;2023-05-07T01:54:39;100241.59;;;14.95;66.69
74895;BME280;63447;49.446;8.666;2023-05-07T01:57:05;100234.94;;;15.00;66.34
74895;BME280;63447;49.446;8.666;2023-05-07T01:59:30;100245.00;;;15.08;67.67
74895;BME280;63447;49.446;8.666;2023-05-07T02:01:55;100263.47;;;15.16;68.09
74895;BME280;63447;49.446;8.666;2023-05-07T02:04:21;100264.72;;;15.18;66.40
74895;BME280;63447;49.446;8.666;2023-05-07T02:06:46;100262.38;;;15.20;66.17
74895;BME280;63447;49.446;8.666;2023-05-07T02:09:12;100240.25;;;15.08;66.99
74895;BME280;63447;49.446;8.666;2023-05-07T02:11:39;100249.72;;;15.23;65.52
74895;BME280;63447;49.446;8.666;2023-05-07T02:14:07;100261.34;;;15.28;65.96
74895;BME280;63447;49.446;8.666;2023-05-07T02:16:32;100260.63;;;15.32;65.25
74895;BME280;63447;49.446;8.666;2023-05-07T02:19:00;100243.28;;;15.19;66.35
74895;BME280;63447;49.446;8.666;2023-05-07T02:21:25;100248.56;;;15.05;67.27
74895;BME280;63447;49.446;8.666;2023-05-07T02:23:50;100250.56;;;15.08;66.74
74895;BME280;63447;49.446;8.666;2023-05-07T02:26:16;100241.00;;;14.86;67.65
74895;BME280;63447;49.446;8.666;2023-05-07T02:28:41;100272.16;;;14.95;67.39
74895;BME280;63447;49.446;8.666;2023-05-07T02:31:06;100263.38;;;14.93;68.07
74895;BME280;63447;49.446;8.666;2023-05-07T02:33:32;100258.41;;;15.02;67.10
74895;BME280;63447;49.446;8.666;2023-05-07T02:36:05;100261.59;;;14.85;68.33
74895;BME280;63447;49.446;8.666;2023-05-07T02:38:30;100275.28;;;14.93;68.35
74895;BME280;63447;49.446;8.666;2023-05-07T02:40:58;100278.50;;;14.96;68.06
74895;BME280;63447;49.446;8.666;2023-05-07T02:43:23;100269.94;;;14.85;68.61
74895;BME280;63447;49.446;8.666;2023-05-07T02:45:49;100283.19;;;14.91;68.53
74895;BME280;63447;49.446;8.666;2023-05-07T02:48:14;100272.78;;;14.88;69.19
74895;BME280;63447;49.446;8.666;2023-05-07T02:50:39;100240.28;;;14.38;71.42
74895;BME280;63447;49.446;8.666;2023-05-07T02:53:07;100256.75;;;14.63;71.08
74895;BME280;63447;49.446;8.666;2023-05-07T02:55:34;100253.19;;;14.46;71.34
74895;BME280;63447;49.446;8.666;2023-05-07T02:58:02;100249.53;;;14.42;71.82
74895;BME280;63447;49.446;8.666;2023-05-07T03:00:27;100268.13;;;14.57;71.03
74895;BME280;63447;49.446;8.666;2023-05-07T03:02:53;100265.66;;;14.52;71.13
74895;BME280;63447;49.446;8.666;2023-05-07T03:05:18;100259.88;;;14.61;70.35
74895;BME280;63447;49.446;8.666;2023-05-07T03:07:46;100261.75;;;14.57;71.53
74895;BME280;63447;49.446;8.666;2023-05-07T03:10:14;100256.97;;;14.54;71.14
74895;BME280;63447;49.446;8.666;2023-05-07T03:12:42;100262.44;;;14.50;70.76
74895;BME280;63447;49.446;8.666;2023-05-07T03:15:08;100257.91;;;14.30;72.30
74895;BME280;63447;49.446;8.666;2023-05-07T03:17:33;100260.53;;;14.39;71.90
74895;BME280;63447;49.446;8.666;2023-05-07T03:19:58;100251.84;;;14.40;71.97
74895;BME280;63447;49.446;8.666;2023-05-07T03:22:24;100253.91;;;14.43;72.12
74895;BME280;63447;49.446;8.666;2023-05-07T03:24:49;100256.50;;;14.36;72.27
74895;BME280;63447;49.446;8.666;2023-05-07T03:27:17;100251.38;;;14.38;71.91
74895;BME280;63447;49.446;8.666;2023-05-07T03:29:43;100254.44;;;14.17;73.39
74895;BME280;63447;49.446;8.666;2023-05-07T03:32:08;100251.41;;;14.22;73.13
74895;BME280;63447;49.446;8.666;2023-05-07T03:34:33;100242.72;;;14.24;73.21
74895;BME280;63447;49.446;8.666;2023-05-07T03:37:01;100253.75;;;14.20;73.77
74895;BME280;63447;49.446;8.666;2023-05-07T03:39:29;100258.94;;;14.22;73.43
74895;BME280;63447;49.446;8.666;2023-05-07T03:41:55;100252.84;;;14.16;73.86
74895;BME280;63447;49.446;8.666;2023-05-07T03:44:22;100234.31;;;14.05;73.95
74895;BME280;63447;49.446;8.666;2023-05-07T03:46:48;100253.09;;;14.11;73.65
74895;BME280;63447;49.446;8.666;2023-05-07T03:49:18;100260.28;;;13.97;73.76
74895;BME280;63447;49.446;8.666;2023-05-07T03:51:45;100263.41;;;13.95;74.58
74895;BME280;63447;49.446;8.666;2023-05-07T03:54:10;100247.84;;;13.90;74.46
74895;BME280;63447;49.446;8.666;2023-05-07T03:56:35;100272.25;;;13.69;75.11
74895;BME280;63447;49.446;8.666;2023-05-07T03:59:02;100264.97;;;13.65;74.85
74895;BME280;63447;49.446;8.666;2023-05-07T04:01:28;100271.03;;;13.54;76.80
74895;BME280;63447;49.446;8.666;2023-05-07T04:03:55;100270.78;;;13.59;76.10
74895;BME280;63447;49.446;8.666;2023-05-07T04:06:22;100279.66;;;13.65;76.44
74895;BME280;63447;49.446;8.666;2023-05-07T04:08:52;100275.72;;;13.66;75.87
74895;BME280;63447;49.446;8.666;2023-05-07T04:11:20;100280.72;;;13.61;76.27
74895;BME280;63447;49.446;8.666;2023-05-07T04:13:45;100287.50;;;13.63;76.31
74895;BME280;63447;49.446;8.666;2023-05-07T04:16:13;100286.50;;;13.55;76.76
74895;BME280;63447;49.446;8.666;2023-05-07T04:18:39;100287.25;;;13.68;76.39
74895;BME280;63447;49.446;8.666;2023-05-07T04:21:05;100274.09;;;13.65;76.04
74895;BME280;63447;49.446;8.666;2023-05-07T04:23:30;100288.41;;;13.67;75.85
74895;BME280;63447;49.446;8.666;2023-05-07T04:25:56;100288.97;;;13.73;75.63
74895;BME280;63447;49.446;8.666;2023-05-07T04:28:22;100284.22;;;13.73;76.58
74895;BME280;63447;49.446;8.666;2023-05-07T04:30:47;100281.63;;;13.80;75.86
74895;BME280;63447;49.446;8.666;2023-05-07T04:33:14;100291.56;;;13.81;75.97
74895;BME280;63447;49.446;8.666;2023-05-07T04:35:41;100287.22;;;13.96;75.58
74895;BME280;63447;49.446;8.666;2023-05-07T04:38:07;100293.72;;;13.88;75.75
74895;BME280;63447;49.446;8.666;2023-05-07T04:40:32;100289.88;;;13.92;75.42
74895;BME280;63447;49.446;8.666;2023-05-07T04:43:00;100286.06;;;13.97;75.54
74895;BME280;63447;49.446;8.666;2023-05-07T04:45:26;100291.69;;;14.01;75.60
74895;BME280;63447;49.446;8.666;2023-05-07T04:47:54;100285.06;;;14.05;75.01
74895;BME280;63447;49.446;8.666;2023-05-07T04:50:19;100284.69;;;14.07;74.62
74895;BME280;63447;49.446;8.666;2023-05-07T04:52:45;100276.38;;;14.07;75.01
74895;BME280;63447;49.446;8.666;2023-05-07T04:55:12;100266.00;;;14.04;75.43
74895;BME280;63447;49.446;8.666;2023-05-07T04:57:37;100292.22;;;14.22;74.50
74895;BME280;63447;49.446;8.666;2023-05-07T05:00:07;100293.50;;;14.24;74.42
74895;BME280;63447;49.446;8.666;2023-05-07T05:02:37;100300.38;;;14.15;74.67
74895;BME280;63447;49.446;8.666;2023-05-07T05:05:02;100303.75;;;13.92;76.18
74895;BME280;63447;49.446;8.666;2023-05-07T05:07:28;100297.41;;;14.08;76.50
74895;BME280;63447;49.446;8.666;2023-05-07T05:09:53;100300.00;;;14.16;75.43
74895;BME280;63447;49.446;8.666;2023-05-07T05:12:21;100302.63;;;14.25;75.72
74895;BME280;63447;49.446;8.666;2023-05-07T05:14:47;100293.66;;;14.16;76.34
74895;BME280;63447;49.446;8.666;2023-05-07T05:17:17;100299.28;;;14.35;75.32
74895;BME280;63447;49.446;8.666;2023-05-07T05:19:45;100305.09;;;14.30;75.15
74895;BME280;63447;49.446;8.666;2023-05-07T05:22:10;100301.66;;;14.49;74.69
74895;BME280;63447;49.446;8.666;2023-05-07T05:24:37;100307.75;;;14.54;74.15
74895;BME280;63447;49.446;8.666;2023-05-07T05:27:04;100310.84;;;14.37;76.11
74895;BME280;63447;49.446;8.666;2023-05-07T05:29:29;100304.88;;;14.51;75.98
74895;BME280;63447;49.446;8.666;2023-05-07T05:31:59;100297.94;;;14.60;73.80
74895;BME280;63447;49.446;8.666;2023-05-07T05:34:24;100311.91;;;14.64;75.05
74895;BME280;63447;49.446;8.666;2023-05-07T05:36:50;100311.09;;;14.79;74.77
74895;BME280;63447;49.446;8.666;2023-05-07T05:39:15;100285.94;;;14.72;73.95
74895;BME280;63447;49.446;8.666;2023-05-07T05:41:43;100308.38;;;14.83;75.40
74895;BME280;63447;49.446;8.666;2023-05-07T05:44:09;100307.75;;;14.89;74.75
74895;BME280;63447;49.446;8.666;2023-05-07T05:46:34;100305.69;;;14.86;75.32
74895;BME280;63447;49.446;8.666;2023-05-07T05:49:00;100310.13;;;15.07;73.64
74895;BME280;63447;49.446;8.666;2023-05-07T05:51:30;100323.34;;;15.13;74.89
74895;BME280;63447;49.446;8.666;2023-05-07T05:53:55;100317.59;;;15.22;74.50
74895;BME280;63447;49.446;8.666;2023-05-07T05:56:21;100314.75;;;15.38;73.74
74895;BME280;63447;49.446;8.666;2023-05-07T05:58:46;100303.50;;;15.31;73.10
74895;BME280;63447;49.446;8.666;2023-05-07T06:01:11;100325.38;;;15.32;74.33
74895;BME280;63447;49.446;8.666;2023-05-07T06:03:37;100314.97;;;15.48;74.17
74895;BME280;63447;49.446;8.666;2023-05-07T06:06:04;100319.66;;;15.64;74.44
74895;BME280;63447;49.446;8.666;2023-05-07T06:08:30;100317.56;;;15.57;75.33
74895;BME280;63447;49.446;8.666;2023-05-07T06:10:56;100328.44;;;15.66;75.45
74895;BME280;63447;49.446;8.666;2023-05-07T06:13:21;100324.78;;;15.81;73.49
74895;BME280;63447;49.446;8.666;2023-05-07T06:15:47;100336.28;;;15.79;73.83
74895;BME280;63447;49.446;8.666;2023-05-07T06:18:13;100328.63;;;15.95;73.12
74895;BME280;63447;49.446;8.666;2023-05-07T06:20:44;100330.16;;;15.93;74.28
74895;BME280;63447;49.446;8.666;2023-05-07T06:23:12;100330.28;;;15.77;76.54
74895;BME280;63447;49.446;8.666;2023-05-07T06:25:39;100326.78;;;16.03;73.70
74895;BME280;63447;49.446;8.666;2023-05-07T06:28:08;100332.78;;;16.05;74.38
74895;BME280;63447;49.446;8.666;2023-05-07T06:30:36;100334.78;;;16.05;75.14
74895;BME280;63447;49.446;8.666;2023-05-07T06:33:03;100327.16;;;16.24;73.04
74895;BME280;63447;49.446;8.666;2023-05-07T06:35:29;100335.88;;;16.23;74.83
74895;BME280;63447;49.446;8.666;2023-05-07T06:37:54;100337.72;;;16.38;73.75
74895;BME280;63447;49.446;8.666;2023-05-07T06:40:19;100328.81;;;16.52;73.73
74895;BME280;63447;49.446;8.666;2023-05-07T06:42:45;100334.81;;;16.54;72.02
74895;BME280;63447;49.446;8.666;2023-05-07T06:45:10;100341.44;;;16.69;72.20
74895;BME280;63447;49.446;8.666;2023-05-07T06:47:36;100341.13;;;16.74;72.75
74895;BME280;63447;49.446;8.666;2023-05-07T06:50:15;100333.31;;;16.83;71.77
74895;BME280;63447;49.446;8.666;2023-05-07T06:52:42;100337.16;;;17.01;70.70
74895;BME280;63447;49.446;8.666;2023-05-07T06:55:08;100344.03;;;16.81;71.92
74895;BME280;63447;49.446;8.666;2023-05-07T06:57:33;100338.97;;;16.86;71.72
74895;BME280;63447;49.446;8.666;2023-05-07T06:59:58;100328.91;;;17.08;71.21
74895;BME280;63447;49.446;8.666;2023-05-07T07:02:28;100332.69;;;17.23;70.62
74895;BME280;63447;49.446;8.666;2023-05-07T07:04:56;100337.56;;;17.29;70.26
74895;BME280;63447;49.446;8.666;2023-05-07T07:07:21;100330.47;;;17.36;68.26
74895;BME280;63447;49.446;8.666;2023-05-07T07:09:49;100337.63;;;17.33;68.87
74895;BME280;63447;49.446;8.666;2023-05-07T07:12:17;100340.09;;;17.38;67.54
74895;BME280;63447;49.446;8.666;2023-05-07T07:14:42;100345.03;;;17.52;69.24
74895;BME280;63447;49.446;8.666;2023-05-07T07:17:07;100344.47;;;17.69;68.99
74895;BME280;63447;49.446;8.666;2023-05-07T07:19:33;100341.94;;;17.90;67.97
74895;BME280;63447;49.446;8.666;2023-05-07T07:21:58;100344.59;;;18.17;67.90
74895;BME280;63447;49.446;8.666;2023-05-07T07:24:23;100354.47;;;18.51;65.92
74895;BME280;63447;49.446;8.666;2023-05-07T07:26:54;100344.94;;;18.56;62.61
74895;BME280;63447;49.446;8.666;2023-05-07T07:29:22;100347.19;;;18.84;64.47
74895;BME280;63447;49.446;8.666;2023-05-07T07:31:48;100340.09;;;19.01;63.29
74895;BME280;63447;49.446;8.666;2023-05-07T07:34:16;100344.88;;;19.00;62.10
74895;BME280;63447;49.446;8.666;2023-05-07T07:36:41;100343.81;;;19.15;61.71
74895;BME280;63447;49.446;8.666;2023-05-07T07:39:07;100343.44;;;19.20;63.54
74895;BME280;63447;49.446;8.666;2023-05-07T07:41:32;100339.91;;;19.38;62.89
74895;BME280;63447;49.446;8.666;2023-05-07T07:43:57;100340.38;;;19.50;62.58
74895;BME280;63447;49.446;8.666;2023-05-07T07:46:23;100342.44;;;19.60;62.47
74895;BME280;63447;49.446;8.666;2023-05-07T07:48:52;100341.22;;;19.58;61.64
74895;BME280;63447;49.446;8.666;2023-05-07T07:51:26;100335.25;;;19.63;61.09
74895;BME280;63447;49.446;8.666;2023-05-07T07:53:51;100341.69;;;19.71;60.56
74895;BME280;63447;49.446;8.666;2023-05-07T07:56:17;100355.31;;;19.72;61.07
74895;BME280;63447;49.446;8.666;2023-05-07T07:58:47;100346.09;;;19.79;60.29
74895;BME280;63447;49.446;8.666;2023-05-07T08:01:12;100344.13;;;19.86;60.06
74895;BME280;63447;49.446;8.666;2023-05-07T08:03:38;100342.16;;;19.90;59.03
74895;BME280;63447;49.446;8.666;2023-05-07T08:06:05;100359.75;;;20.02;59.55
74895;BME280;63447;49.446;8.666;2023-05-07T08:08:31;100368.22;;;20.12;59.94
74895;BME280;63447;49.446;8.666;2023-05-07T08:10:56;100367.03;;;20.31;58.60
74895;BME280;63447;49.446;8.666;2023-05-07T08:13:21;100365.91;;;20.46;55.82
74895;BME280;63447;49.446;8.666;2023-05-07T08:15:49;100367.03;;;20.34;53.91
74895;BME280;63447;49.446;8.666;2023-05-07T08:18:17;100364.69;;;20.40;55.66
74895;BME280;63447;49.446;8.666;2023-05-07T08:20:42;100370.31;;;20.47;55.19
74895;BME280;63447;49.446;8.666;2023-05-07T08:23:08;100377.50;;;20.48;53.93
74895;BME280;63447;49.446;8.666;2023-05-07T08:25:36;100359.88;;;20.37;54.55
74895;BME280;63447;49.446;8.666;2023-05-07T08:28:03;100374.31;;;20.46;55.61
74895;BME280;63447;49.446;8.666;2023-05-07T08:30:31;100382.31;;;20.55;56.10
74895;BME280;63447;49.446;8.666;2023-05-07T08:32:56;100390.72;;;20.48;55.09
74895;BME280;63447;49.446;8.666;2023-05-07T08:35:21;100383.94;;;20.52;54.59
74895;BME280;63447;49.446;8.666;2023-05-07T08:37:49;100382.31;;;20.51;54.31
74895;BME280;63447;49.446;8.666;2023-05-07T08:40:20;100397.13;;;20.59;54.30
74895;BME280;63447;49.446;8.666;2023-05-07T08:42:48;100399.94;;;20.62;54.09
74895;BME280;63447;49.446;8.666;2023-05-07T08:45:14;100402.34;;;20.60;54.37
74895;BME280;63447;49.446;8.666;2023-05-07T08:47:43;100399.97;;;20.77;54.43
74895;BME280;63447;49.446;8.666;2023-05-07T08:50:24;100399.53;;;20.96;54.10
74895;BME280;63447;49.446;8.666;2023-05-07T08:52:50;100393.94;;;20.78;54.16
74895;BME280;63447;49.446;8.666;2023-05-07T08:55:15;100390.28;;;21.06;53.84
74895;BME280;63447;49.446;8.666;2023-05-07T08:57:41;100390.28;;;21.31;53.84
74895;BME280;63447;49.446;8.666;2023-05-07T09:00:07;100382.97;;;21.58;53.03
74895;BME280;63447;49.446;8.666;2023-05-07T09:02:35;100366.47;;;21.78;53.73
74895;BME280;63447;49.446;8.666;2023-05-07T09:05:01;100361.16;;;21.94;53.96
74895;BME280;63447;49.446;8.666;2023-05-07T09:07:30;100358.56;;;22.32;53.03
74895;BME280;63447;49.446;8.666;2023-05-07T09:09:56;100355.22;;;22.48;53.71
74895;BME280;63447;49.446;8.666;2023-05-07T09:12:24;100357.72;;;22.35;53.62
74895;BME280;63447;49.446;8.666;2023-05-07T09:14:51;100346.44;;;22.42;52.57
74895;BME280;63447;49.446;8.666;2023-05-07T09:17:21;100347.75;;;22.30;52.99
74895;BME280;63447;49.446;8.666;2023-05-07T09:19:47;100358.34;;;22.60;51.52
74895;BME280;63447;49.446;8.666;2023-05-07T09:22:13;100346.66;;;22.62;51.37
74895;BME280;63447;49.446;8.666;2023-05-07T09:24:47;100344.66;;;22.62;52.86
74895;BME280;63447;49.446;8.666;2023-05-07T09:27:12;100351.97;;;22.56;53.06
74895;BME280;63447;49.446;8.666;2023-05-07T09:29:41;100350.47;;;22.38;52.80
74895;BME280;63447;49.446;8.666;2023-05-07T09:32:07;100352.16;;;22.31;53.81
74895;BME280;63447;49.446;8.666;2023-05-07T09:34:33;100355.28;;;22.41;53.36
74895;BME280;63447;49.446;8.666;2023-05-07T09:37:03;100357.69;;;22.42;53.56
74895;BME280;63447;49.446;8.666;2023-05-07T09:39:44;100367.44;;;22.27;52.94
74895;BME280;63447;49.446;8.666;2023-05-07T09:42:10;100359.41;;;22.25;53.09
74895;BME280;63447;49.446;8.666;2023-05-07T09:44:43;100352.19;;;22.24;55.82
74895;BME280;63447;49.446;8.666;2023-05-07T09:47:10;100358.41;;;22.53;53.75
74895;BME280;63447;49.446;8.666;2023-05-07T09:49:41;100363.19;;;22.60;53.04
74895;BME280;63447;49.446;8.666;2023-05-07T09:52:18;100360.41;;;22.56;52.61
74895;BME280;63447;49.446;8.666;2023-05-07T09:54:45;100358.69;;;22.66;52.22
74895;BME280;63447;49.446;8.666;2023-05-07T09:57:13;100356.28;;;22.64;52.88
74895;BME280;63447;49.446;8.666;2023-05-07T09:59:42;100350.28;;;22.62;52.84
74895;BME280;63447;49.446;8.666;2023-05-07T10:02:12;100349.69;;;22.89;53.70
74895;BME280;63447;49.446;8.666;2023-05-07T10:04:39;100347.19;;;22.98;52.15
74895;BME280;63447;49.446;8.666;2023-05-07T10:07:05;100342.69;;;23.08;52.74
74895;BME280;63447;49.446;8.666;2023-05-07T10:09:32;100336.94;;;23.15;52.24
74895;BME280;63447;49.446;8.666;2023-05-07T10:11:58;100332.28;;;23.39;52.03
74895;BME280;63447;49.446;8.666;2023-05-07T10:14:25;100340.56;;;23.53;50.65
74895;BME280;63447;49.446;8.666;2023-05-07T10:16:53;100340.38;;;23.67;50.09
74895;BME280;63447;49.446;8.666;2023-05-07T10:19:19;100334.28;;;23.72;50.17
74895;BME280;63447;49.446;8.666;2023-05-07T10:21:54;100319.69;;;23.81;50.72
74895;BME280;63447;49.446;8.666;2023-05-07T10:24:29;100339.16;;;23.98;49.68
74895;BME280;63447;49.446;8.666;2023-05-07T10:26:55;100332.50;;;24.16;49.32
74895;BME280;63447;49.446;8.666;2023-05-07T10:31:57;100334.88;;;24.44;48.72
74895;BME280;63447;49.446;8.666;2023-05-07T10:34:33;100324.56;;;24.34;47.80
74895;BME280;63447;49.446;8.666;2023-05-07T10:37:00;100322.69;;;24.74;47.77
74895;BME280;63447;49.446;8.666;2023-05-07T10:39:27;100325.44;;;25.01;46.98
74895;BME280;63447;49.446;8.666;2023-05-07T10:41:55;100325.56;;;25.17;46.79
74895;BME280;63447;49.446;8.666;2023-05-07T10:44:30;100317.81;;;25.61;47.11
74895;BME280;63447;49.446;8.666;2023-05-07T10:47:07;100314.44;;;25.69;44.94
74895;BME280;63447;49.446;8.666;2023-05-07T10:49:37;100316.06;;;25.87;44.56
74895;BME280;63447;49.446;8.666;2023-05-07T10:52:13;100301.91;;;26.23;43.57
74895;BME280;63447;49.446;8.666;2023-05-07T10:54:39;100298.13;;;26.46;43.53
74895;BME280;63447;49.446;8.666;2023-05-07T10:57:36;100308.09;;;26.66;40.65
74895;BME280;63447;49.446;8.666;2023-05-07T11:05:30;100290.44;;;26.46;40.95
74895;BME280;63447;49.446;8.666;2023-05-07T11:10:24;100301.06;;;27.03;39.63
74895;BME280;63447;49.446;8.666;2023-05-07T11:13:07;100295.06;;;26.85;35.22
74895;BME280;63447;49.446;8.666;2023-05-07T11:15:39;100291.81;;;27.45;34.12
74895;BME280;63447;49.446;8.666;2023-05-07T11:18:08;100292.00;;;27.37;33.37
74895;BME280;63447;49.446;8.666;2023-05-07T11:20:55;100287.19;;;27.51;32.73
74895;BME280;63447;49.446;8.666;2023-05-07T11:26:04;100285.00;;;27.96;34.09
74895;BME280;63447;49.446;8.666;2023-05-07T11:28:30;100276.47;;;28.34;31.14
74895;BME280;63447;49.446;8.666;2023-05-07T11:30:56;100287.91;;;28.82;30.56
74895;BME280;63447;49.446;8.666;2023-05-07T11:33:22;100269.38;;;28.64;30.65
74895;BME280;63447;49.446;8.666;2023-05-07T11:35:51;100272.25;;;28.99;31.71
74895;BME280;63447;49.446;8.666;2023-05-07T11:38:18;100279.66;;;29.18;30.53
74895;BME280;63447;49.446;8.666;2023-05-07T11:40:56;100276.44;;;27.17;31.36
74895;BME280;63447;49.446;8.666;2023-05-07T11:43:21;100280.56;;;26.99;31.34
74895;BME280;63447;49.446;8.666;2023-05-07T11:45:47;100287.34;;;25.88;34.34
74895;BME280;63447;49.446;8.666;2023-05-07T11:48:16;100275.97;;;26.08;34.53
74895;BME280;63447;49.446;8.666;2023-05-07T11:50:51;100284.00;;;25.93;33.81
74895;BME280;63447;49.446;8.666;2023-05-07T11:53:20;100280.56;;;26.02;34.48
74895;BME280;63447;49.446;8.666;2023-05-07T11:55:52;100274.44;;;25.87;34.10
74895;BME280;63447;49.446;8.666;2023-05-07T11:58:21;100283.06;;;25.44;33.78
74895;BME280;63447;49.446;8.666;2023-05-07T12:00:53;100291.06;;;25.26;34.86
74895;BME280;63447;49.446;8.666;2023-05-07T12:03:21;100272.03;;;25.10;35.43
74895;BME280;63447;49.446;8.666;2023-05-07T12:05:47;100277.66;;;24.90;36.51
74895;BME280;63447;49.446;8.666;2023-05-07T12:08:20;100277.97;;;25.35;36.11
74895;BME280;63447;49.446;8.666;2023-05-07T12:10:48;100273.63;;;25.71;34.94
74895;BME280;63447;49.446;8.666;2023-05-07T12:13:24;100274.16;;;25.46;35.64
74895;BME280;63447;49.446;8.666;2023-05-07T12:15:54;100263.38;;;25.77;35.74
74895;BME280;63447;49.446;8.666;2023-05-07T12:18:21;100273.34;;;26.66;34.77
74895;BME280;63447;49.446;8.666;2023-05-07T12:20:46;100260.78;;;27.12;35.48
74895;BME280;63447;49.446;8.666;2023-05-07T12:23:12;100259.25;;;27.78;32.52
74895;BME280;63447;49.446;8.666;2023-05-07T12:25:42;100259.94;;;27.95;32.22
74895;BME280;63447;49.446;8.666;2023-05-07T12:28:15;100249.34;;;28.33;32.26
74895;BME280;63447;49.446;8.666;2023-05-07T12:30:47;100247.69;;;28.23;32.32
74895;BME280;63447;49.446;8.666;2023-05-07T12:33:24;100243.03;;;27.91;32.70
74895;BME280;63447;49.446;8.666;2023-05-07T12:35:50;100240.44;;;26.56;34.93
74895;BME280;63447;49.446;8.666;2023-05-07T12:38:17;100242.13;;;27.27;34.01
74895;BME280;63447;49.446;8.666;2023-05-07T12:40:45;100249.41;;;26.83;34.79
74895;BME280;63447;49.446;8.666;2023-05-07T12:43:17;100255.41;;;26.56;35.00
74895;BME280;63447;49.446;8.666;2023-05-07T12:45:46;100249.41;;;26.22;34.83
74895;BME280;63447;49.446;8.666;2023-05-07T12:48:12;100237.03;;;26.32;35.11
74895;BME280;63447;49.446;8.666;2023-05-07T12:50:37;100241.31;;;25.88;36.10
74895;BME280;63447;49.446;8.666;2023-05-07T12:53:06;100246.75;;;26.31;35.74
74895;BME280;63447;49.446;8.666;2023-05-07T12:55:44;100240.56;;;25.48;36.45
74895;BME280;63447;49.446;8.666;2023-05-07T12:58:32;100238.13;;;25.86;35.70
74895;BME280;63447;49.446;8.666;2023-05-07T13:00:57;100240.75;;;25.41;36.54
74895;BME280;63447;49.446;8.666;2023-05-07T13:03:36;100242.56;;;25.31;36.63
74895;BME280;63447;49.446;8.666;2023-05-07T13:06:04;100238.75;;;24.78;37.98